Cumberland, Georgia
Current Conditions -  °F | °C
As of 11:58 AM on Wednesday 22 Oct 2014 (Local Time) from KMGE Reporting Station
Clear Clear  
Wind Chill: 60°   Ceiling: Unl
Heat Index: 60°   Visibility: 10mi
Dew Point: 41°   Wind: 7mph
Humidity: 49%   Direction: 340°NNW
Pressure: 30.13"   Gusts: NA
Location:  33.8691°N, 84.4633°W
Report Text: KMGE 221558Z 34006KT 10SM CLR 16/05 A3013 RMK AO2A SLP201 T01570051 $
Loading
Personal Weather Stations






























Interactive Weather Map
Tropical Storm Tracking
New forecast layout! Learn more

10-Day Weather Forecast

Advertisements
Track Severe Weather on mobile